Logo AVAMET
Benvolgut visitant, si us plau, ingressa Recuperar contrasenya

Vilallonga el Pla de la Llacuna

Dades diàries. Acumulats / Últims 30 dies disponibles

Data Temperatura (°C) Humitat rel. (%) Pressió rel. (hPa) Vent (km/h) Precipitació
Mínima Mitjana Màxima Amplitud
tèrmica
Mínima Mitjana Màxima Mínima Mitjana Màxima Predom. Mitjana Ràfega
màxima
Total
(mm)
Índex-n
Mínima Mitjana Màxima Mínima Mitjana Màxima n
0 a 1
P0 max
mm 5'
Dades mensuals acumulades fins l'últim dia disponible
07/2019 17,6 19,2 23,2 24,7 26,3 30,0 37,1 19,5 19 67 97 1.007 1.014 1.022   2,8 59,5 1,0
Dades anuals acumulades fins l'últim dia disponible
2019 1,1 10,5 23,2 15,1 8,9 19,8 37,1 36,0 12 64 100 993 1.017 1.035   4,5 75,6 721,2
Últims 30 dies disponibles
22-07-2019 18,8     23,6     28,5 9,7 45 75 97 1.019 1.021 1.022 ENE 1,8 20,9 0,0
21-07-2019 18,8     23,3     27,3 8,5 47 77 91 1.017 1.019 1.021 ENE 3,0 25,7 0,0
20-07-2019 18,2     23,1     27,9 9,7 57 75 92 1.014 1.015 1.018 ENE 1,9 17,7 0,0
19-07-2019 18,2     23,4     27,9 9,7 59 73 89 1.013 1.015 1.016 NE 2,0 19,3 0,0
18-07-2019 18,3     24,0     30,5 12,2 52 69 84 1.012 1.013 1.015 NE 2,4 22,5 0,0
17-07-2019 18,3     24,3     30,7 12,4 39 61 83 1.011 1.013 1.014 ESE 2,3 25,7 0,0
16-07-2019 20,5     25,3     30,4 9,9 43 65 95 1.012 1.014 1.015 SE 3,6 27,4 0,0
15-07-2019 19,3     24,9     29,9 10,6 43 69 90 1.009 1.010 1.013 E 2,1 20,9 0,0
14-07-2019 18,7     23,8     27,8 9,1 46 73 93 1.009 1.010 1.012 SE 3,4 29,0 0,0
13-07-2019 21,3     25,6     30,8 9,5 36 63 92 1.010 1.012 1.014 ESE 2,2 20,9 0,0
12-07-2019 21,4     29,1     36,4 15,0 30 47 62 1.012 1.013 1.015 ESE 1,6 16,1 0,0
11-07-2019 18,2     26,4     33,7 15,5 32 56 82 1.012 1.013 1.015 ESE 2,0 20,9 0,0
10-07-2019 17,8     24,2     30,1 12,3 42 64 84 1.012 1.013 1.015 ESE 2,2 19,3 0,0
09-07-2019 18,8     24,2     29,5 10,7 32 64 94 1.010 1.011 1.013 S 3,9 24,1 0,0
08-07-2019 20,3     23,1     26,3 6,0 62 81 93 1.009 1.010 1.012 ESE 2,4 19,3 0,0
07-07-2019 23,2     30,7     36,6 13,4 22 42 82 1.007 1.010 1.012 S 9,5 59,5 0,0
06-07-2019 20,7     29,4     37,1 16,4 19 44 86 1.010 1.012 1.015 S 5,7 48,3 1,0
05-07-2019 17,9     23,8     29,3 11,4 64 78 93 1.013 1.015 1.017 E 1,7 17,7 0,0
04-07-2019 17,6     22,7     27,7 10,1 59 74 90 1.013 1.015 1.017 E 2,1 20,9 0,0
03-07-2019 17,6     23,0     27,4 9,8 50 64 78 1.013 1.014 1.015 ENE 2,0 17,7 0,0
02-07-2019 18,9     22,3     26,6 7,7 69 85 95 1.013 1.015 1.016 ENE 2,2 20,9 0,0
01-07-2019 18,9     23,4     27,2 8,3 46 69 94 1.013 1.015 1.016 ENE 2,6 19,3 0,0
30-06-2019 20,3     26,1     30,9 10,6 14 40 64 1.014 1.015 1.017 NE 1,8 19,3 0,0
29-06-2019 20,7     27,8     34,7 14,0 12 41 64 1.013 1.014 1.015 ENE 1,8 19,3 0,0
28-06-2019 19,8     25,9     31,3 11,5 31 51 67 1.014 1.016 1.019 ENE 1,9 17,7 0,0
27-06-2019 17,6     22,8     28,3 10,7 56 74 98 1.018 1.019 1.021 E 1,9 19,3 0,0
26-06-2019 18,6     20,7     25,7 7,1 73 90 98 1.017 1.018 1.019 ENE 3,2 22,5 0,0
25-06-2019 15,2     20,2     24,9 9,7 65 81 94 1.014 1.016 1.018 ESE 2,7 20,9 0,0
24-06-2019 16,0     21,1     26,2 10,2 46 67 95 1.013 1.014 1.015 ENE 2,2 20,9 0,0
23-06-2019 14,7     21,0     26,4 11,7 47 70 88 1.013 1.014 1.015 E 2,0 19,3 0,0
Últims 13 mesos disponibles
06/2019 9,6 15,2 20,7 20,8 18,3 26,2 34,7 25,1 37 62 90 1.008 1.014 1.021 E 3,2 51,5 1,8
05/2019 7,2 11,8 18,6 16,6 15,9 21,9 28,7 21,5 51 69 87 1.005 1.015 1.024 SE 3,7 56,3 22,6
04/2019 5,9 9,4 13,5 12,9 10,7 17,1 25,9 20,0 35 72 100 999 1.013 1.024 OSO 6,8 61,2 542,6
03/2019 4,1 8,3 14,4 12,7 10,4 17,2 25,0 20,9 31 59 97 1.009 1.022 1.030 SE 4,3 74,0 137,2
02/2019 2,1 6,0 11,8 10,5 8,9 14,9 21,4 19,3 28 62 92 995 1.024 1.033 SSE 4,1 75,6 0,8
01/2019 1,1 5,9 10,2 9,8 8,9 13,9 18,9 17,8 34 57 83 1.002 1.019 1.031 OSO 5,9 62,8 15,2
12/2018 4,2 8,6 15,4 12,7 10,3 17,3 24,7 20,5 35 62 97 1.008 1.025 1.030 OSO 5,2 62,8 32,4
11/2018 6,6 9,8 13,5 12,6 11,3 15,8 20,5 13,9 30 73 100 1.001 1.015 1.023 OSO 6,2 78,9 290,2
10/2018 4,8 12,7 16,9 16,2 11,1 20,1 27,2 22,4 40 75 99 999 1.014 1.025 3,5 67,6 125,4
09/2018 13,1 17,6 19,9 21,4 20,3 25,7 31,2 18,1 50 82 95 1.012 1.019 1.027 2,1 49,9 126,6
08/2018 17,3 20,3 23,8 24,8 22,6 29,6 35,8 18,5 44 71 95 1.011 1.016 1.021 2,7 32,2 46,8
07/2018 17,3 19,6 24,0 25,1 22,8 30,5 35,2 17,9 36 63 94 1.009 1.014 1.019 3,5 51,5 3,6
06/2018 12,4 16,5 19,8 21,5 19,5 26,7 32,9 20,5 44 63 85 1.009 1.014 1.020 4,0 45,1 28,6
Tots els anys disponibles
Temperatura (°C)
Humitat relativa (%)
Velocitat del vent i ràfega màxima (km/h)
Direcció del vent (°)
Pressió (hPa)
Precipitació (mm)
Nota sobre les dades: s'avisa a l'usuari de la provisionalitat i no oficialitat d'aquestes dades
Logo AVAMET blanc
Web allotjada a Sollutia
Llicència de Creative CommonsLa web d'AVAMET i els seus continguts estan subjectes a una llicència de
Reconeixement - No Comercial - Compartir igual
Properes estacions: Altea - Club Nàutic d'Altea (Soci), Ares del Maestrat (Ajuntament Soci),      - - - - -      Últimes estacions: Catadau - Urb. Lloma Molina (Inforatge), Ontinyent - El Pilar (Soci) - - -